Tiempo atmosférico en la estación meteorológica de Lanaja, Huesca (380 m.)



Fecha
DESCASC
Temp. máxima en grados centígrados (hora)
DESCASC
Temp. mínima en grados centígrados (hora)
DESCASC
Temp. media en grados centígrados
DESCASC
Racha de viento máxima en m/sg (hora)
DESCASC
Velocidad máxima media en intervalos de 10 minutos(hora)
DESCASC
Precipitaciones diarias en mm
DESCASC
Precipitaciones de 00:00 a 06:00 en mm
DESCASC
Precipitaciones de 06:00 a 12:00 en mm
DESCASC
Precipitaciones de 12:00 a 18:00 en mm
DESCASC
Precipitaciones de 18:00 a 24:00 en mm
DESCASC
23-06-2019 33.7 (17:20) 17.9 (05:20) 25.8 11.39 (18:50) 6.94 (19:00) 0 0 0 0 0
22-06-2019 29.7 (17:20) 11.9 (06:40) 20.8 10.83 (00:30) 8.61 (00:30) 0 0 0 0 0
21-06-2019 26.4 (17:20) 15.7 (06:00) 21 10.83 (23:59) 7.78 (23:59) 0 0 0 0 0
20-06-2019 29.1 (16:00) 17.2 (00:00) 23.2 9.17 (19:10) 6.39 (19:40) 0 0 0 0 0
19-06-2019 -- (--) -- (--) -- -- (--) -- (--) -- -- -- -- 0
18-06-2019 -- (--) -- (--) -- -- (--) -- (--) -- 0 0 0 --
17-06-2019 32 (18:30) 15.8 (00:00) 23.9 10 (20:40) 6.67 (20:40) 0 0 0 0 0
16-06-2019 28.8 (17:40) 11.2 (00:00) 20 8.33 (02:40) 5.83 (02:50) 0 0 0 0 0
15-06-2019 26.2 (17:30) 13.3 (00:00) 19.8 13.61 (12:40) 8.33 (11:50) 0 0 0 0 0
14-06-2019 27.3 (18:30) 13.5 (00:00) 20.4 9.44 (12:00) 6.39 (12:00) 0 0 0 0 0
13-06-2019 25.6 (17:10) 10.2 (00:00) 17.9 13.61 (17:30) 9.17 (18:20) 0 0 0 0 0
12-06-2019 22.4 (17:00) 8.6 (00:00) 15.5 9.44 (23:50) 6.67 (23:50) 0 0 0 0 0
11-06-2019 19.2 (16:30) 10 (00:00) 14.6 15 (17:50) 10.83 (18:40) 0.4 0 0.4 0 0
10-06-2019 23 (16:00) 12.6 (00:00) 17.8 14.44 (17:40) 9.72 (13:10) 0 0 0 0 0
09-06-2019 28.7 (18:20) 14.3 (00:00) 21.5 11.67 (22:20) 7.5 (23:59) 0 0 0 0 0
08-06-2019 25.6 (17:20) 8.9 (00:00) 17.3 12.78 (17:50) 8.61 (18:40) 0 0 0 0 0
07-06-2019 23.1 (18:50) 11.6 (00:00) 17.4 11.11 (08:20) 8.33 (08:20) 0 0 0 0 0
06-06-2019 23.5 (16:30) 9.7 (00:00) 16.6 14.44 (18:30) 9.44 (16:40) 0 0 0 0 0
05-06-2019 18.8 (17:30) 12.1 (00:00) 15.4 17.5 (14:20) 12.5 (15:40) 0 0 0 0 0
04-06-2019 30 (16:50) 14.6 (00:00) 22.3 12.5 (18:40) 7.5 (18:00) 0 0 0 0 0
03-06-2019 30 (17:40) 14.6 (00:00) 22.3 9.17 (17:20) 5.83 (18:40) 0 0 0 0 0
02-06-2019 31.5 (17:20) 14.4 (00:00) 22.9 8.33 (20:50) 5.56 (20:30) 0 0 0 0 0
01-06-2019 30.3 (18:40) 14.3 (00:00) 22.3 7.78 (21:20) 4.72 (21:20) 0 0 0 0 0
31-05-2019 28.2 (17:50) 12.1 (00:00) 20.2 6.67 (01:10) 4.17 (01:20) 0 0 0 0 0
30-05-2019 28.2 (20:00) 8.7 (00:00) 18.5 8.06 (00:20) 6.39 (01:00) 0 0 0 0 0
29-05-2019 22.4 (16:00) 9.7 (00:00) 16 19.17 (00:20) 12.78 (00:10) 0 0 0 0 0
28-05-2019 19.9 (16:40) 11 (00:00) 15.4 26.39 (17:20) 17.22 (17:20) 0 0 0 0 0
27-05-2019 24.3 (16:10) 10.1 (00:00) 17.2 18.06 (18:40) 12.78 (18:10) 0 0 0 0 0

Gráficas

Temp. máximas Temp. mínimas Temp. medias Precipitaciones Rachas de viento máximas Velocidades máximas media en intervalos de 10 minutos

Datos horarios

Fecha y hora oficial Temperatura (ºC) Velocidad del viento (km/h) Dirección del viento Racha (km/h) Dirección de racha Precipitación (mm) Presión (hPa) Tendencia (hPa) Humedad (%)
2019-06-25 23:00:00 25 19 Sudeste 42 Sudeste -- -- -- 55
2019-06-25 22:00:00 27.4 23 Sur 37 Sudeste 0 -- -- 47
2019-06-25 21:00:00 30.7 18 Sur 38 Sudeste 0 -- -- 39
2019-06-25 20:00:00 32.5 19 Sudeste 36 Sudeste 0 -- -- 38
2019-06-25 19:00:00 33.3 15 Sudeste 36 Sudeste 0 -- -- 38
2019-06-25 18:00:00 32.8 21 Sudeste 33 Sudeste 0 -- -- 37
2019-06-25 17:00:00 32.4 18 Este 33 Este 0 -- -- 38
2019-06-25 16:00:00 31.3 17 Este 30 Este 0 -- -- 37
2019-06-25 15:00:00 30.2 12 Sudeste 26 Este 0 -- -- 42
2019-06-25 14:00:00 28.9 14 Sudeste 27 Sudeste 0 -- -- 46
2019-06-25 13:00:00 27.2 12 Sudeste 23 Sudeste 0 -- -- 51
2019-06-25 12:00:00 25.9 12 Este 22 Sudeste 0 -- -- 54
2019-06-25 11:00:00 24.1 12 Sudeste 21 Sudeste 0 -- -- 59
2019-06-25 10:00:00 23 11 Sudeste 17 Sur 0 -- -- 62
2019-06-25 09:00:00 21.5 6 Sudeste 10 Este 0 -- -- 63
2019-06-25 08:00:00 19.5 5 Noroeste 6 Noroeste 0 -- -- 65
2019-06-25 07:00:00 17.8 3 Oeste 10 Noroeste 0 -- -- 70
2019-06-25 06:00:00 17.7 3 Oeste 7 Oeste 0 -- -- 69
2019-06-25 05:00:00 18.2 3 Sudoeste 6 Este 0 -- -- 66
2019-06-25 04:00:00 18.5 5 Este 8 Este 0 -- -- 66
2019-06-25 03:00:00 19.2 4 Nordeste 9 Sudeste 0 -- -- 58
2019-06-25 02:00:00 20.3 6 Sudeste 14 Sudeste 0 -- -- 52
2019-06-25 01:00:00 21.4 7 Sudeste 15 Sudeste 0 -- -- 51
2019-06-25 00:00:00 22.7 6 Sudeste 17 Sudeste 0 -- -- 44
2019-06-24 23:00:00 23.7 12 Sudeste 27 Sudeste 0 -- -- 40
2019-06-24 22:00:00 25.4 13 Sudeste 22 Sudeste 0 -- -- 36
2019-06-24 21:00:00 27.6 18 Sur 29 Sudeste 0 -- -- 29
2019-06-24 20:00:00 29.1 18 Sur 36 Sudeste 0 -- -- 25
2019-06-24 19:00:00 31.4 22 Sudeste 37 Sudeste 0 -- -- 24
2019-06-24 18:00:00 31.7 15 Sudeste 34 Sur 0 -- -- 23
2019-06-24 17:00:00 31.1 23 Sudeste 39 Sudeste 0 -- -- 24
2019-06-24 16:00:00 31.5 20 Sudeste 40 Este 0 -- -- 22
2019-06-24 15:00:00 31.2 19 Sudeste 36 Sudeste 0 -- -- 21
2019-06-24 14:00:00 30.7 22 Sur 42 Sur 0 -- -- 22
2019-06-24 13:00:00 29.2 18 Sudeste 33 Sudeste 0 -- -- 27
2019-06-24 12:00:00 27.1 20 Sudeste 34 Este 0 -- -- 34
2019-06-24 11:00:00 25.2 15 Sudeste 27 Sudeste 0 -- -- 39
2019-06-24 10:00:00 23.5 15 Sudeste 25 Sudeste 0 -- -- 43
2019-06-24 09:00:00 21.3 13 Sur 21 Sudeste 0 -- -- 49
2019-06-24 08:00:00 19 10 Sudeste 18 Sudeste 0 -- -- 55
2019-06-24 07:00:00 18.3 7 Sur 18 Sudeste 0 -- -- 56
2019-06-24 06:00:00 18.4 9 Sudeste 18 Sudeste 0 -- -- 58
2019-06-24 05:00:00 18.8 6 Sur 20 Sudeste 0 -- -- 55
2019-06-24 04:00:00 20.2 10 Sudeste 29 Sudeste 0 -- -- 50
2019-06-24 03:00:00 21.3 15 Sudeste 28 Sudeste 0 -- -- 42
2019-06-24 02:00:00 21.5 10 Sudeste 23 Sudeste 0 -- -- 43
2019-06-24 01:00:00 22 12 Sudeste 26 Este 0 -- -- 45
2019-06-24 00:00:00 22.9 11 Este 19 Sudeste 0 -- -- 44
2019-06-23 23:00:00 24.4 10 Este 21 Sudeste 0 -- -- 41
2019-06-23 22:00:00 26.4 9 Sudeste 24 Sudeste 0 -- -- 39
2019-06-23 21:00:00 29.5 13 Sudeste 31 Sudeste 0 -- -- 33
2019-06-23 20:00:00 32.2 21 Sudeste 35 Este 0 -- -- 28
2019-06-23 19:00:00 32.7 25 Sudeste 41 Sudeste 0 -- -- 29
2019-06-23 18:00:00 33.4 18 Este 32 Sudeste 0 -- -- 28
2019-06-23 17:00:00 33.4 19 Este 34 Este 0 -- -- 29
2019-06-23 16:00:00 32.6 18 Este 33 Sudeste 0 -- -- 31
2019-06-23 15:00:00 31.3 16 Este 27 Sudeste 0 -- -- 35
2019-06-23 14:00:00 30.3 15 Sudeste 26 Este 0 -- -- 36
2019-06-23 13:00:00 28.2 15 Este 27 Sudeste 0 -- -- 42
2019-06-23 12:00:00 26.7 13 Este 21 Este 0 -- -- 45
2019-06-23 11:00:00 24.6 10 Sudeste 26 Sudeste 0 -- -- 51
2019-06-23 10:00:00 22.1 15 Sudeste 25 Sudeste 0 -- -- 56
2019-06-23 09:00:00 20.8 8 Sur 13 Sudeste 0 -- -- 60
2019-06-23 08:00:00 19 4 Sudeste 7 Sudeste 0 -- -- 67
2019-06-23 07:00:00 18 4 Sudeste 7 Sudeste 0 -- -- 71
2019-06-23 06:00:00 18.1 3 Sur 10 Sur 0 -- -- 70
2019-06-23 05:00:00 18 5 Sudoeste 9 Sur 0 -- -- 71
2019-06-23 04:00:00 18.6 4 Sudoeste 9 Sudeste 0 -- -- 71
2019-06-23 03:00:00 19.1 6 Sudeste 13 Este 0 -- -- 70
2019-06-23 02:00:00 19.5 10 Este 14 Este 0 -- -- 69
2019-06-23 01:00:00 20.5 8 Este 17 Sudeste 0 -- -- 64
2019-06-23 00:00:00 22.9 9 Sudeste 21 Sur 0 -- -- 55
2019-06-22 23:00:00 24.1 11 Sudeste 23 Sudeste 0 -- -- 50
2019-06-22 22:00:00 25.5 12 Sudeste 20 Sur 0 -- -- 42
2019-06-22 21:00:00 27.1 12 Sudeste 23 Sudeste 0 -- -- 34
2019-06-22 20:00:00 28.5 15 Sudeste 26 Sudeste 0 -- -- 31
2019-06-22 19:00:00 29.3 14 Sudeste 24 Sudeste 0 -- -- 29
2019-06-22 18:00:00 29.6 10 Sudeste 24 Nordeste 0 -- -- 28
2019-06-22 17:00:00 28.9 13 Sudeste 21 Sudeste 0 -- -- 29
2019-06-22 16:00:00 28.4 7 Sudeste 20 Sudeste 0 -- -- 31
2019-06-22 15:00:00 27.6 7 Este 18 Este 0 -- -- 33
2019-06-22 14:00:00 26.6 9 Sudeste 17 Sur 0 -- -- 34
2019-06-22 13:00:00 24.6 8 Nordeste 13 Este 0 -- -- 37
2019-06-22 12:00:00 22.3 8 Norte 13 Nordeste 0 -- -- 41
2019-06-22 11:00:00 20.4 6 Norte 15 Norte 0 -- -- 49
2019-06-22 10:00:00 19.2 9 Nordeste 13 Este 0 -- -- 54
2019-06-22 09:00:00 16.7 6 Nordeste 11 Nordeste 0 -- -- 61
2019-06-22 08:00:00 14.4 3 Norte 10 Noroeste 0 -- -- 65
2019-06-22 07:00:00 12.3 3 Noroeste 8 Noroeste 0 -- -- 72
2019-06-22 06:00:00 12.4 3 Sudoeste 10 Noroeste 0 -- -- 72
2019-06-22 05:00:00 13.1 6 Noroeste 12 Noroeste 0 -- -- 72
2019-06-22 04:00:00 13.4 5 Norte 17 Noroeste 0 -- -- 71
2019-06-22 03:00:00 14.3 12 Noroeste 24 Noroeste 0 -- -- 67
2019-06-22 02:00:00 15.3 15 Noroeste 35 Noroeste 0 -- -- 65
2019-06-22 01:00:00 16.6 28 Noroeste 39 Noroeste 0 -- -- 61
2019-06-22 00:00:00 17.5 28 Noroeste 39 Noroeste 0 -- -- 59
2019-06-21 23:00:00 18.8 28 Noroeste 37 Noroeste 0 -- -- 55
2019-06-21 22:00:00 20.7 20 Noroeste 30 Noroeste 0 -- -- 50
2019-06-21 21:00:00 23.4 18 Noroeste 28 Noroeste 0 -- -- 44
2019-06-21 20:00:00 25.2 18 Noroeste 28 Noroeste 0 -- -- 41
2019-06-21 19:00:00 25.7 19 Noroeste 27 Noroeste 0 -- -- 41
2019-06-21 18:00:00 26.1 13 Norte 25 Noroeste 0 -- -- 41
2019-06-21 17:00:00 25.9 10 Noroeste 24 Noroeste 0 -- -- 42
2019-06-21 16:00:00 25 8 Noroeste 28 Oeste 0 -- -- 46
2019-06-21 15:00:00 23.4 8 Noroeste 21 Norte 0 -- -- 53
2019-06-21 14:00:00 21.3 13 Noroeste 21 Norte 0 -- -- 60
2019-06-21 13:00:00 22 6 Oeste 20 Sudoeste 0 -- -- 60
2019-06-21 12:00:00 21.1 6 Sudeste 13 Sur 0 -- -- 63
2019-06-21 11:00:00 19.3 5 Nordeste 10 Nordeste 0 -- -- 71
2019-06-21 10:00:00 18.8 8 Nordeste 13 Norte 0 -- -- 75
2019-06-21 09:00:00 17.7 9 Norte 12 Norte 0 -- -- 79
2019-06-21 08:00:00 16.8 4 Noroeste 9 Noroeste 0 -- -- 81
2019-06-21 07:00:00 16.3 4 Norte 15 Noroeste 0 -- -- 82
2019-06-21 06:00:00 15.7 14 Norte 16 Norte 0 -- -- 85
2019-06-21 05:00:00 16.4 6 Noroeste 12 Noroeste 0 -- -- 80
2019-06-21 04:00:00 16.6 11 Noroeste 16 Oeste 0 -- -- 80
2019-06-21 03:00:00 16.9 13 Noroeste 17 Noroeste 0 -- -- 78
2019-06-21 02:00:00 16.2 12 Norte 14 Norte 0 -- -- 83
2019-06-21 01:00:00 18.9 8 Sudeste 14 Sudeste 0 -- -- 78
2019-06-21 00:00:00 19.3 7 Sur 16 Sudeste 0 -- -- 74
2019-06-20 23:00:00 19.8 10 Sudeste 17 Sudeste 0 -- -- 71
2019-06-20 22:00:00 21 9 Sudeste 15 Sudoeste 0 -- -- 64
2019-06-20 21:00:00 22.8 10 Sudoeste 29 Sudoeste 0 -- -- 52
2019-06-20 20:00:00 24 16 Sur 33 Sur 0 -- -- 54
2019-06-20 19:00:00 23.3 11 Sudeste 26 Sur 0 -- -- 58
2019-06-20 18:00:00 26.6 11 Este 22 Nordeste 0 -- -- 46
2019-06-20 17:00:00 28.1 9 Este 27 Este 0 -- -- 36
2019-06-20 16:00:00 29.1 13 Este 25 Este 0 -- -- 37
2019-06-20 15:00:00 27.9 10 Nordeste 21 Nordeste 0 -- -- 40
2019-06-20 14:00:00 27.4 11 Nordeste 21 Nordeste 0 -- -- 41
2019-06-20 13:00:00 25.5 5 Nordeste 16 Este 0 -- -- 45
2019-06-20 12:00:00 25 5 Este 15 Nordeste 0 -- -- 46
2019-06-20 11:00:00 22.8 5 Norte 21 Noroeste 0 -- -- 52
2019-06-20 10:00:00 20.5 13 Norte 23 Norte 0 -- -- 57
2019-06-20 09:00:00 18.7 14 Norte 18 Norte 0 -- -- 66
2019-06-20 08:00:00 17.7 8 Noroeste 10 Noroeste 0 -- -- 71
2019-06-20 07:00:00 17.3 6 Nordeste 8 Nordeste 0 -- -- 71
2019-06-20 06:00:00 18 6 Noroeste 12 Nordeste 0 -- -- 68
2019-06-20 05:00:00 18.3 11 Nordeste 24 Noroeste 0 -- -- 68
2019-06-20 04:00:00 20.3 18 Noroeste 24 Noroeste 0 -- -- 51
2019-06-20 03:00:00 20.9 12 Noroeste 14 Noroeste 0 -- -- 48
2019-06-20 02:00:00 22.4 10 Noroeste 23 Noroeste 0 -- -- 45
2019-06-20 01:00:00 22.6 14 Noroeste 21 Noroeste 0 -- -- 43
2019-06-20 00:00:00 24.5 13 Noroeste 20 Oeste 0 -- -- 37
2019-06-19 23:00:00 24.6 5 Oeste 11 Oeste 0 -- -- 39
2019-06-19 22:00:00 25.9 6 Norte 9 Nordeste 0 -- -- 37
2019-06-19 21:00:00 28.5 5 Nordeste 15 Norte 0 -- -- 33
2019-06-19 20:00:00 29.8 10 Nordeste 18 Nordeste 0 -- -- 30
2019-06-19 19:00:00 28.7 12 Nordeste 26 Este 0 -- -- 32
2019-06-19 18:00:00 29.3 16 Nordeste 33 Nordeste 0 -- -- 31
2019-06-19 17:00:00 29.6 15 Norte 28 Noroeste 0 -- -- 30
2019-06-19 16:00:00 29.5 12 Norte 24 Noroeste 0 -- -- 30
2019-06-19 15:00:00 28.9 12 Noroeste -- -- -- -- -- 32
2019-06-19 14:00:00 28.4 17 Noroeste 32 Oeste 0 -- -- 31
2019-06-19 13:00:00 27.5 5 Este 15 Este 0 -- -- 33
2019-06-19 12:00:00 -- -- -- -- -- -- -- -- --
2019-06-19 11:00:00 -- -- -- -- -- -- -- -- --
2019-06-19 10:00:00 -- -- -- -- -- -- -- -- --
2019-06-19 09:00:00 -- -- -- -- -- -- -- -- --
2019-06-19 08:00:00 -- -- -- -- -- -- -- -- --
2019-06-19 07:00:00 -- -- -- -- -- -- -- -- --
2019-06-19 06:00:00 -- -- -- -- -- -- -- -- --
2019-06-19 05:00:00 -- -- -- -- -- -- -- -- --
2019-06-19 04:00:00 -- -- -- -- -- -- -- -- --
2019-06-19 03:00:00 -- -- -- -- -- -- -- -- --
2019-06-19 02:00:00 -- -- -- -- -- -- -- -- --
2019-06-19 01:00:00 -- -- -- -- -- -- -- -- --
2019-06-19 00:00:00 -- -- -- -- -- -- -- -- --
2019-06-18 23:00:00 -- -- -- -- -- -- -- -- --
2019-06-18 22:00:00 -- -- -- -- -- -- -- -- --
2019-06-18 21:00:00 -- -- -- -- -- -- -- -- --
2019-06-18 20:00:00 -- -- -- -- -- -- -- -- --
2019-06-18 19:00:00 30.1 24 Sudeste 41 Sudeste 0 -- -- 34
2019-06-18 18:00:00 31.7 22 Este 45 Este 0 -- -- 29
2019-06-18 17:00:00 32.4 21 Sudeste 40 Este 0 -- -- 25
2019-06-18 16:00:00 32.3 17 Este 31 Este 0 -- -- 26
2019-06-18 15:00:00 30.4 14 Este 28 Sur 0 -- -- 27
2019-06-18 14:00:00 29.4 13 Sudeste 25 Este 0 -- -- 28
2019-06-18 13:00:00 27.4 12 Sudeste 22 Este 0 -- -- 32
2019-06-18 12:00:00 25.5 10 Sudeste 23 Sudeste 0 -- -- 34
2019-06-18 11:00:00 22.6 12 Sudeste 22 Sudeste 0 -- -- 39
2019-06-18 10:00:00 20.7 13 Sur 24 Sur 0 -- -- 44
2019-06-18 09:00:00 18.6 8 Sudeste 21 Este 0 -- -- 49
2019-06-18 08:00:00 18.4 8 Norte 14 Noroeste 0 -- -- 48
2019-06-18 07:00:00 17.1 3 Sur 11 Sudeste 0 -- -- 51
2019-06-18 06:00:00 17.4 8 Sudeste 26 Oeste 0 -- -- 51
2019-06-18 05:00:00 17.8 12 Sudeste 21 Sudeste 0 -- -- 52
2019-06-18 04:00:00 18.4 9 Sur 14 Sudeste 0 -- -- 53
2019-06-18 03:00:00 19.2 4 Sur 19 Sudeste 0 -- -- 49
2019-06-18 02:00:00 19.9 14 Sudeste 27 Sudeste 0 -- -- 46
2019-06-18 01:00:00 20.2 12 Sudeste 24 Sudeste 0 -- -- 51
2019-06-18 00:00:00 22.2 11 Este 23 Sur 0 -- -- 48
2019-06-17 23:00:00 24.3 12 Sudeste 30 Sur 0 -- -- 41
2019-06-17 22:00:00 26.2 18 Sur 28 Sur 0 -- -- 39
2019-06-17 21:00:00 28.3 22 Sur 36 Sur 0 -- -- 34
2019-06-17 20:00:00 31 10 Sudeste 25 Este 0 -- -- 24
2019-06-17 19:00:00 31.7 14 Este 26 Este 0 -- -- 23
2019-06-17 18:00:00 31.8 13 Sudeste 28 Sudeste 0 -- -- 22
2019-06-17 17:00:00 31.7 9 Este 28 Sudeste 0 -- -- 24
2019-06-17 16:00:00 31.1 11 Sudeste 26 Sudeste 0 -- -- 25
2019-06-17 15:00:00 30.1 14 Este 25 Este 0 -- -- 27
2019-06-17 14:00:00 28.7 13 Este 22 Este 0 -- -- 29
2019-06-17 13:00:00 27.6 10 Este 21 Sudeste 0 -- -- 31
2019-06-17 12:00:00 25.6 10 Sudeste 19 Este 0 -- -- 37
2019-06-17 11:00:00 23.4 9 Sur 16 Sudeste -- -- -- 41
2019-06-17 10:00:00 21.5 8 Sudeste 15 Sudeste 0 -- -- 49
2019-06-17 09:00:00 20.4 7 Sudeste 14 Sudeste 0 -- -- 52
2019-06-17 08:00:00 18.2 2 Sudoeste 10 Oeste 0 -- -- 57
2019-06-17 07:00:00 15.9 4 Sudoeste 9 Sudoeste 0 -- -- 63
2019-06-17 06:00:00 15.8 6 Sudoeste 8 Sudoeste 0 -- -- 63
2019-06-17 05:00:00 16.2 5 Sudoeste 10 Sudoeste 0 -- -- 65
2019-06-17 04:00:00 16.2 7 Sudoeste 12 Oeste 0 -- -- 65
2019-06-17 03:00:00 17.4 3 Sudeste 8 Nordeste 0 -- -- 64
2019-06-17 02:00:00 18 7 Nordeste 15 Este 0 -- -- 62
2019-06-17 01:00:00 19.7 11 Este 18 Este 0 -- -- 53
2019-06-17 00:00:00 21.7 8 Sudeste 24 Sudoeste 0 -- -- 43
2019-06-16 23:00:00 23.4 11 Sur 19 Sudeste 0 -- -- 38
2019-06-16 22:00:00 24.5 17 Sur 23 Sur 0 -- -- 40
2019-06-16 21:00:00 26.1 9 Sudeste 16 Sudeste 0 -- -- 32
2019-06-16 20:00:00 27.6 8 Sudeste 18 Este 0 -- -- 27
2019-06-16 19:00:00 28.2 10 Este 17 Este 0 -- -- 26
2019-06-16 18:00:00 28.8 9 Este 17 Este 0 -- -- 26
2019-06-16 17:00:00 28.2 10 Nordeste 23 Este 0 -- -- 28
2019-06-16 16:00:00 27.9 13 Nordeste 20 Nordeste 0 -- -- 29
2019-06-16 15:00:00 26.6 7 Este 23 Este 0 -- -- 32
2019-06-16 14:00:00 25.4 10 Este 20 Sudeste 0 -- -- 34
2019-06-16 13:00:00 24.2 8 Este 15 Sudeste 0 -- -- 35
2019-06-16 12:00:00 22.7 7 Este 15 Nordeste 0 -- -- 38
2019-06-16 11:00:00 20 5 Sur 12 Este 0 -- -- 45
2019-06-16 10:00:00 17.4 5 Nordeste 10 Norte 0 -- -- 53
2019-06-16 09:00:00 15.6 4 Nordeste 12 Nordeste 0 -- -- 58
2019-06-16 08:00:00 12.7 3 Este 15 Oeste 0 -- -- 67
2019-06-16 07:00:00 12.2 12 Sudoeste 17 Sudoeste 0 -- -- 68
2019-06-16 06:00:00 11.4 8 Sudoeste 10 Sudoeste 0 -- -- 70
2019-06-16 05:00:00 11.8 5 Sudeste 12 Este 0 -- -- 69
2019-06-16 04:00:00 13 12 Norte 22 Norte 0 -- -- 63
2019-06-16 03:00:00 15.2 17 Noroeste 30 Oeste 0 -- -- 55
2019-06-16 02:00:00 18 15 Oeste 26 Oeste 0 -- -- 42
2019-06-16 01:00:00 17.8 14 Oeste 27 Oeste 0 -- -- 44
2019-06-16 00:00:00 17.5 17 Oeste 22 Noroeste 0 -- -- 44
2019-06-15 23:00:00 18.2 13 Noroeste 19 Noroeste 0 -- -- 44
2019-06-15 22:00:00 19.8 14 Noroeste 26 Norte 0 -- -- 39
2019-06-15 21:00:00 22.8 18 Norte 29 Norte 0 -- -- 34
2019-06-15 20:00:00 24.6 21 Norte 32 Noroeste 0 -- -- 29
2019-06-15 19:00:00 25.5 19 Noroeste 33 Oeste 0 -- -- 27
2019-06-15 18:00:00 25.7 21 Noroeste 44 Oeste 0 -- -- 25
2019-06-15 17:00:00 25.6 19 Noroeste 40 Noroeste 0 -- -- 26
2019-06-15 16:00:00 25.2 21 Noroeste 37 Noroeste 0 -- -- 26
2019-06-15 15:00:00 25 19 Noroeste 35 Noroeste 0 -- -- 26
2019-06-15 14:00:00 24.1 18 Noroeste 35 Noroeste 0 -- -- 29
2019-06-15 13:00:00 23.2 23 Noroeste 49 Noroeste 0 -- -- 34
2019-06-15 12:00:00 21.5 27 Noroeste 42 Noroeste 0 -- -- 40
2019-06-15 11:00:00 19.7 24 Noroeste 36 Noroeste 0 -- -- 47
2019-06-15 10:00:00 18 23 Noroeste 36 Noroeste 0 -- -- 53
2019-06-15 09:00:00 16.6 17 Noroeste 31 Noroeste 0 -- -- 59
2019-06-15 08:00:00 15 19 Noroeste 30 Noroeste 0 -- -- 65
2019-06-15 07:00:00 13.3 19 Noroeste 44 Oeste 0 -- -- 73
2019-06-15 06:00:00 14 28 Oeste 42 Oeste 0 -- -- 72
2019-06-15 05:00:00 13.7 10 Noroeste 32 Noroeste 0 -- -- 74
2019-06-15 04:00:00 14.3 11 Noroeste 23 Norte 0 -- -- 72
2019-06-15 03:00:00 16.5 15 Noroeste 32 Noroeste 0 -- -- 62
2019-06-15 02:00:00 21 17 Oeste 30 Oeste 0 -- -- 34
2019-06-15 01:00:00 22.1 16 Oeste 26 Oeste 0 -- -- 30
2019-06-15 00:00:00 21.7 8 Oeste 18 Oeste 0 -- -- 49
2019-06-14 23:00:00 22.4 10 Sur 15 Sur 0 -- -- 46
2019-06-14 22:00:00 23.6 8 Sudeste 21 Sudeste 0 -- -- 43
2019-06-14 21:00:00 26.1 6 Sudeste 15 Sudeste 0 -- -- 34
2019-06-14 20:00:00 26.9 9 Este 19 Este 0 -- -- 32
2019-06-14 19:00:00 27.3 10 Nordeste 18 Este 0 -- -- 32
2019-06-14 18:00:00 26.8 6 Este 20 Nordeste 0 -- -- 34
2019-06-14 17:00:00 25.7 8 Nordeste 19 Nordeste 0 -- -- 37
2019-06-14 16:00:00 24.3 10 Nordeste 18 Nordeste 0 -- -- 43
2019-06-14 15:00:00 21.8 13 Norte 26 Norte 0 -- -- 46
2019-06-14 14:00:00 20.7 19 Norte 28 Noroeste 0 -- -- 44
2019-06-14 13:00:00 21.7 23 Noroeste 31 Noroeste 0 -- -- 41
2019-06-14 12:00:00 20.4 23 Noroeste 34 Noroeste 0 -- -- 44
2019-06-14 11:00:00 17.4 10 Norte 22 Noroeste 0 -- -- 53
2019-06-14 10:00:00 15.2 12 Norte 17 Norte 0 -- -- 63
2019-06-14 09:00:00 15.8 5 Noroeste 15 Oeste 0 -- -- 51
2019-06-14 08:00:00 16 11 Norte 24 Noroeste 0 -- -- 43
2019-06-14 07:00:00 16.2 11 Oeste 18 Oeste 0 -- -- 52
2019-06-14 06:00:00 15.9 10 Oeste 16 Noroeste 0 -- -- 44
2019-06-14 05:00:00 13.7 10 Oeste 14 Noroeste 0 -- -- 47
2019-06-14 04:00:00 13.5 8 Norte 13 Noroeste 0 -- -- 51
2019-06-14 03:00:00 14.8 4 Este 10 Sudeste 0 -- -- 47
2019-06-14 02:00:00 15.3 4 Sudeste 16 Sudeste 0 -- -- 43
2019-06-14 01:00:00 16 8 Sudeste 13 Sudeste 0 -- -- 41
2019-06-14 00:00:00 17.2 7 Sudeste 20 Sudeste 0 -- -- 37
2019-06-13 23:00:00 18.8 13 Sudeste 26 Sudeste 0 -- -- 31
2019-06-13 22:00:00 19.7 16 Sudeste 36 Sur 0 -- -- 35
2019-06-13 21:00:00 21.1 17 Sudeste 32 Sudeste 0 -- -- 38
2019-06-13 20:00:00 20.9 20 Sudeste 47 Sudeste 0 -- -- 45
2019-06-13 19:00:00 22.1 24 Sur 47 Sudeste 0 -- -- 43
2019-06-13 18:00:00 24.8 33 Sudeste 49 Sudeste 0 -- -- 39
2019-06-13 17:00:00 25.4 23 Sudeste 48 Sudeste 0 -- -- 37
2019-06-13 16:00:00 24.2 20 Sudeste 40 Sudeste 0 -- -- 42
2019-06-13 15:00:00 22.9 19 Sudeste 42 Sudeste 0 -- -- 44
2019-06-13 14:00:00 22.4 23 Sudeste 39 Sudeste 0 -- -- 46
2019-06-13 13:00:00 21.6 21 Sudeste 36 Sudeste 0 -- -- 50
2019-06-13 12:00:00 20 20 Sudeste 37 Este 0 -- -- 54
2019-06-13 11:00:00 17.8 19 Sudeste 31 Sudeste 0 -- -- 57
2019-06-13 10:00:00 15.9 17 Sudeste 28 Sudeste 0 -- -- 57
2019-06-13 09:00:00 13.6 11 Sudeste 20 Este 0 -- -- 63
2019-06-13 08:00:00 11.6 9 Sur 14 Sur 0 -- -- 67
2019-06-13 07:00:00 10.4 7 Sur 20 Sudeste 0 -- -- 69
2019-06-13 06:00:00 10.5 9 Sudeste 19 Sudeste 0 -- -- 68
2019-06-13 05:00:00 11 5 Sur 22 Sur 0 -- -- 65
2019-06-13 04:00:00 11.6 8 Sur 23 Sudeste 0 -- -- 63
2019-06-13 03:00:00 12.5 13 Sudeste 26 Sudeste 0 -- -- 61
2019-06-13 02:00:00 13.4 15 Este 27 Sudeste 0 -- -- 58
2019-06-13 01:00:00 15.3 15 Sur 33 Sur 0 -- -- 46
2019-06-13 00:00:00 16.3 21 Sur 34 Sur 0 -- -- 44
2019-06-12 23:00:00 17 19 Sur 28 Sudeste 0 -- -- 46
2019-06-12 22:00:00 18.4 16 Sudeste 29 Sudeste 0 -- -- 37
2019-06-12 21:00:00 19.9 18 Sudeste 31 Sudeste 0 -- -- 34
2019-06-12 20:00:00 21.1 17 Sudeste 33 Sudeste 0 -- -- 30
2019-06-12 19:00:00 22 10 Sudeste 21 Nordeste 0 -- -- 27
2019-06-12 18:00:00 21.6 14 Sudeste 25 Sudeste 0 -- -- 28
2019-06-12 17:00:00 22.4 7 Norte 28 Norte 0 -- -- 26
2019-06-12 16:00:00 21.3 8 Norte 24 Noroeste 0 -- -- 26
2019-06-12 15:00:00 20.5 11 Nordeste 27 Norte 0 -- -- 30
2019-06-12 14:00:00 19.4 9 Sudeste 18 Sudoeste 0 -- -- 34
2019-06-12 13:00:00 18.8 9 Sudeste 18 Nordeste 0 -- -- 34
2019-06-12 12:00:00 17.4 6 Nordeste 19 Norte 0 -- -- 37
2019-06-12 11:00:00 15.7 10 Noroeste 23 Noroeste 0 -- -- 38
2019-06-12 10:00:00 14.6 14 Norte 24 Noroeste 0 -- -- 43
2019-06-12 09:00:00 13.2 19 Norte 30 Noroeste 0 -- -- 51
2019-06-12 08:00:00 11.1 13 Noroeste 19 Noroeste 0 -- -- 58
2019-06-12 07:00:00 9.2 12 Noroeste 22 Noroeste 0 -- -- 62
2019-06-12 06:00:00 8.7 15 Noroeste 29 Oeste 0 -- -- 65
2019-06-12 05:00:00 8.6 15 Oeste 25 Noroeste 0 -- -- 67
2019-06-12 04:00:00 8.8 14 Oeste 27 Oeste 0 -- -- 68
2019-06-12 03:00:00 9.8 19 Oeste 27 Noroeste 0 -- -- 62
2019-06-12 02:00:00 10.1 19 Noroeste 28 Noroeste 0 -- -- 62
2019-06-12 01:00:00 10.8 17 Noroeste 28 Noroeste 0 -- -- 60
2019-06-12 00:00:00 11.5 21 Noroeste 36 Noroeste 0 -- -- 58
2019-06-11 23:00:00 12.4 29 Noroeste 42 Noroeste 0 -- -- 54
2019-06-11 22:00:00 13.4 19 Noroeste 47 Noroeste 0 -- -- 47
2019-06-11 21:00:00 15.1 30 Noroeste 53 Noroeste 0 -- -- 43
2019-06-11 20:00:00 16.8 37 Noroeste 52 Noroeste 0 -- -- 37
2019-06-11 19:00:00 18.1 36 Noroeste 54 Noroeste 0 -- -- 34
2019-06-11 18:00:00 18.6 39 Noroeste 54 Noroeste 0 -- -- 34
2019-06-11 17:00:00 19.2 30 Noroeste 46 Noroeste 0 -- -- 34
2019-06-11 16:00:00 18.1 23 Noroeste 42 Noroeste 0 -- -- 35
2019-06-11 15:00:00 18.9 27 Noroeste 43 Noroeste 0 -- -- 37
2019-06-11 14:00:00 16.6 21 Noroeste 36 Noroeste 0 -- -- 46
2019-06-11 13:00:00 13.6 25 Noroeste 36 Noroeste 0 -- -- 61
2019-06-11 12:00:00 12.4 21 Noroeste 37 Noroeste 0.2 -- -- 66
2019-06-11 11:00:00 11.4 27 Noroeste 37 Noroeste 0 -- -- 70
2019-06-11 10:00:00 11 20 Noroeste 31 Noroeste 0 -- -- 72
2019-06-11 09:00:00 10 17 Noroeste 29 Noroeste 0 -- -- 80
2019-06-11 08:00:00 10.2 16 Noroeste 21 Oeste 0.2 -- -- 78
2019-06-11 07:00:00 10.5 16 Noroeste 22 Noroeste 0 -- -- 75
2019-06-11 06:00:00 10.9 12 Oeste 18 Oeste 0 -- -- 70
2019-06-11 05:00:00 10.5 13 Noroeste 33 Noroeste 0 -- -- 77
2019-06-11 04:00:00 11.7 19 Noroeste 39 Noroeste 0 -- -- 64
2019-06-11 03:00:00 12.8 26 Noroeste 36 Oeste 0 -- -- 55
2019-06-11 02:00:00 14.4 19 Oeste 34 Oeste 0 -- -- 44
2019-06-11 01:00:00 15 23 Oeste 46 Oeste 0 -- -- 43
2019-06-11 00:00:00 14.8 17 Oeste 35 Oeste 0 -- -- 48
2019-06-10 23:00:00 15.2 28 Noroeste 42 Noroeste 0 -- -- 46
2019-06-10 22:00:00 15.7 24 Noroeste 39 Noroeste 0 -- -- 46
2019-06-10 21:00:00 17 29 Noroeste 49 Noroeste 0 -- -- 39
2019-06-10 20:00:00 19.1 28 Noroeste 44 Noroeste 0 -- -- 37
2019-06-10 19:00:00 21.2 27 Noroeste 47 Noroeste 0 -- -- 29
2019-06-10 18:00:00 21.6 30 Noroeste 52 Norte 0 -- -- 33
2019-06-10 17:00:00 22.9 31 Noroeste 49 Noroeste 0 -- -- 32
2019-06-10 16:00:00 23 28 Noroeste 48 Noroeste 0 -- -- 34
2019-06-10 15:00:00 21.9 32 Noroeste 49 Noroeste 0 -- -- 37
2019-06-10 14:00:00 21.6 32 Noroeste 49 Oeste 0 -- -- 39
2019-06-10 13:00:00 20.7 30 Noroeste 45 Oeste 0 -- -- 42
2019-06-10 12:00:00 19.6 28 Noroeste 42 Oeste 0 -- -- 45
2019-06-10 11:00:00 17.9 27 Noroeste 44 Noroeste 0 -- -- 50
2019-06-10 10:00:00 16.6 27 Noroeste 44 Noroeste 0 -- -- 54
2019-06-10 09:00:00 14.8 30 Noroeste 43 Noroeste 0 -- -- 62
2019-06-10 08:00:00 13.2 28 Noroeste 42 Noroeste 0 -- -- 68
2019-06-10 07:00:00 12.7 27 Noroeste 41 Noroeste 0 -- -- 70
2019-06-10 06:00:00 12.9 26 Noroeste 40 Noroeste 0 -- -- 71
2019-06-10 05:00:00 13.5 30 Noroeste 43 Noroeste 0 -- -- 70
2019-06-10 04:00:00 14.5 30 Noroeste 42 Noroeste 0 -- -- 67
2019-06-10 03:00:00 15.1 30 Noroeste 42 Noroeste 0 -- -- 66
2019-06-10 02:00:00 16 30 Noroeste 42 Noroeste 0 -- -- 63
2019-06-10 01:00:00 17.2 27 Noroeste 40 Noroeste 0 -- -- 59
2019-06-10 00:00:00 18.1 27 Noroeste 37 Noroeste 0 -- -- 57
2019-06-09 23:00:00 21 21 Noroeste 42 Noroeste 0 -- -- 47
2019-06-09 22:00:00 24.8 9 Sudoeste 13 Sudoeste 0 -- -- 30
2019-06-09 21:00:00 26.9 2 Sur 10 Este 0 -- -- 28
2019-06-09 20:00:00 28 6 Este 15 Este 0 -- -- 26
2019-06-09 19:00:00 28.5 9 Nordeste 19 Este 0 -- -- 25
2019-06-09 18:00:00 28.5 8 Nordeste 20 Nordeste 0 -- -- 25
2019-06-09 17:00:00 27.8 12 Este 26 Nordeste 0 -- -- 25
2019-06-09 16:00:00 27.8 10 Este 22 Sudeste 0 -- -- 24
2019-06-09 15:00:00 27.6 9 Este 21 Sudeste 0 -- -- 26
2019-06-09 14:00:00 26.4 9 Este 23 Sudeste 0 -- -- 27
2019-06-09 13:00:00 24.6 12 Sudeste 22 Sudeste 0 -- -- 29
2019-06-09 12:00:00 23.7 13 Sudeste 22 Sudeste 0 -- -- 31
2019-06-09 11:00:00 22 11 Este 19 Este 0 -- -- 33
2019-06-09 10:00:00 20.2 6 Sudeste 13 Sudeste 0 -- -- 38
2019-06-09 09:00:00 18.5 3 Sur 6 Sur 0 -- -- 40
2019-06-09 08:00:00 15.6 3 Sudoeste 7 Sudoeste 0 -- -- 46
2019-06-09 07:00:00 15.2 5 Sudoeste 10 Sudoeste 0 -- -- 49
2019-06-09 06:00:00 15.3 3 Oeste 6 Sudoeste 0 -- -- 52
2019-06-09 05:00:00 15.2 2 Oeste 13 Sudeste 0 -- -- 54
2019-06-09 04:00:00 15.7 9 Sudeste 14 Sudeste 0 -- -- 52
2019-06-09 03:00:00 16.2 7 Sudeste 14 Sudeste 0 -- -- 48
2019-06-09 02:00:00 16.8 11 Sudeste 28 Sudeste 0 -- -- 44
2019-06-09 01:00:00 16.6 15 Sudeste 29 Este 0 -- -- 47
2019-06-09 00:00:00 17.8 17 Sudeste 33 Sudeste 0 -- -- 42
2019-06-08 23:00:00 18.1 13 Este 34 Sudeste 0 -- -- 42
2019-06-08 22:00:00 19.6 18 Sudeste 29 Sudeste 0 -- -- 37
2019-06-08 21:00:00 20.8 14 Sudeste 32 Sur 0 -- -- 34
2019-06-08 20:00:00 21.5 26 Sudeste 40 Sudeste 0 -- -- 36
2019-06-08 19:00:00 22.6 30 Sur 44 Sudeste 0 -- -- 35
2019-06-08 18:00:00 24.6 26 Sur 46 Sudeste 0 -- -- 32
2019-06-08 17:00:00 25.5 15 Sudeste 31 Sudeste 0 -- -- 35
2019-06-08 16:00:00 24.2 17 Este 33 Sudeste 0 -- -- 31
2019-06-08 15:00:00 23.5 18 Sudeste 33 Sudeste 0 -- -- 32
2019-06-08 14:00:00 22.4 17 Sudeste 32 Sudeste 0 -- -- 37
2019-06-08 13:00:00 21.3 14 Sudeste 28 Sudeste 0 -- -- 38
2019-06-08 12:00:00 20.4 6 Este 15 Sur 0 -- -- 40
2019-06-08 11:00:00 17.6 5 Norte 15 Nordeste 0 -- -- 45
2019-06-08 10:00:00 15.7 8 Nordeste 14 Nordeste 0 -- -- 50
2019-06-08 09:00:00 14.5 3 Nordeste 6 Norte 0 -- -- 51
2019-06-08 08:00:00 11.5 2 Este 9 Sudeste 0 -- -- 59
2019-06-08 07:00:00 9.9 3 Sur 9 Noroeste 0 -- -- 59
2019-06-08 06:00:00 9.6 9 Noroeste 10 Noroeste 0 -- -- 62
2019-06-08 05:00:00 11.7 6 Norte 17 Noroeste 0 -- -- 55
2019-06-08 04:00:00 11.3 15 Noroeste 18 Noroeste 0 -- -- 52
2019-06-08 03:00:00 14.5 15 Noroeste 17 Noroeste 0 -- -- 40
2019-06-08 02:00:00 15 12 Noroeste 14 Noroeste 0 -- -- 40
2019-06-08 01:00:00 15.5 12 Noroeste 15 Oeste 0 -- -- 39
2019-06-08 00:00:00 15.3 4 Sudoeste 11 Noroeste 0 -- -- 42
2019-06-07 23:00:00 16.1 9 Noroeste 14 Noroeste 0 -- -- 39
2019-06-07 22:00:00 16.8 7 Noroeste 18 Norte 0 -- -- 40
2019-06-07 21:00:00 19.7 14 Norte 28 Norte 0 -- -- 33
2019-06-07 20:00:00 22 18 Noroeste 35 Noroeste 0 -- -- 26
2019-06-07 19:00:00 22.7 22 Noroeste 40 Noroeste 0 -- -- 24
2019-06-07 18:00:00 22.4 17 Norte 29 Norte 0 -- -- 26
2019-06-07 17:00:00 22.1 21 Norte 39 Oeste 0 -- -- 27
2019-06-07 16:00:00 22.2 13 Noroeste 34 Oeste 0 -- -- 27
2019-06-07 15:00:00 21.4 15 Noroeste 36 Noroeste 0 -- -- 29
2019-06-07 14:00:00 20.6 19 Oeste 32 Noroeste 0 -- -- 30
2019-06-07 13:00:00 19.1 14 Noroeste 29 Noroeste 0 -- -- 38
2019-06-07 12:00:00 18.6 15 Oeste 33 Oeste 0 -- -- 40
2019-06-07 11:00:00 16.9 20 Noroeste 30 Oeste 0 -- -- 46
2019-06-07 10:00:00 13 10 Noroeste 26 Noroeste 0 -- -- 68
2019-06-07 09:00:00 11.6 20 Noroeste 40 Noroeste 0 -- -- 81
2019-06-07 08:00:00 13.8 8 Sudoeste 15 Sudeste 0 -- -- 78
2019-06-07 07:00:00 13.4 3 Sudeste 24 Sudeste 0 -- -- 79
2019-06-07 06:00:00 13.7 16 Sudeste 26 Sudeste 0 -- -- 77
2019-06-07 05:00:00 13.8 12 Sudeste 35 Sudeste 0 -- -- 75
2019-06-07 04:00:00 13.6 18 Sudeste 28 Sudeste 0 -- -- 75
2019-06-07 03:00:00 14.1 14 Sudeste 29 Sudeste 0 -- -- 73
2019-06-07 02:00:00 15.6 18 Sudeste 34 Sudeste 0 -- -- 76
2019-06-07 01:00:00 15.8 15 Sudeste 33 Sudeste 0 -- -- 75
2019-06-07 00:00:00 16.2 18 Sudeste 30 Sudeste 0 -- -- 70
2019-06-06 23:00:00 16.9 18 Sudeste 41 Sudeste 0 -- -- 65
2019-06-06 22:00:00 18.6 25 Sudeste 42 Sudeste 0 -- -- 54
2019-06-06 21:00:00 20.4 30 Sudeste 50 Sudeste 0 -- -- 45
2019-06-06 20:00:00 22.1 33 Sudeste 52 Sudeste 0 -- -- 39
2019-06-06 19:00:00 21.9 25 Sudeste 52 Sudeste 0 -- -- 44
2019-06-06 18:00:00 22.5 29 Sudeste 50 Sudeste 0 -- -- 41
2019-06-06 17:00:00 23 34 Sudeste 51 Sudeste 0 -- -- 39
2019-06-06 16:00:00 23.3 21 Sudeste 46 Este 0 -- -- 35
2019-06-06 15:00:00 23 21 Este 38 Este 0 -- -- 35
2019-06-06 14:00:00 21.5 22 Este 35 Este 0 -- -- 38
2019-06-06 13:00:00 20 17 Este 31 Este 0 -- -- 42
2019-06-06 12:00:00 18.5 13 Sudeste 26 Este 0 -- -- 45
2019-06-06 11:00:00 16.7 10 Sudeste 19 Sudeste 0 -- -- 48
2019-06-06 10:00:00 15.1 7 Sudeste 12 Sudeste 0 -- -- 54
2019-06-06 09:00:00 13.4 8 Sudeste 13 Este 0 -- -- 62
2019-06-06 08:00:00 10.8 4 Sur 8 Sur 0 -- -- 71
2019-06-06 07:00:00 9.9 3 Sur 17 Noroeste 0 -- -- 70
2019-06-06 06:00:00 9.8 10 Noroeste 18 Noroeste 0 -- -- 71
2019-06-06 05:00:00 11.5 14 Noroeste 19 Noroeste 0 -- -- 61
2019-06-06 04:00:00 13 7 Noroeste 18 Oeste 0 -- -- 55
2019-06-06 03:00:00 14.1 13 Oeste 25 Oeste 0 -- -- 49
2019-06-06 02:00:00 13.8 17 Oeste 28 Noroeste 0 -- -- 51
2019-06-06 01:00:00 12.8 16 Oeste 27 Oeste 0 -- -- 58
2019-06-06 00:00:00 12.1 15 Noroeste 24 Noroeste 0 -- -- 62
2019-06-05 23:00:00 13 17 Noroeste 33 Noroeste 0 -- -- 57
2019-06-05 22:00:00 14.8 22 Noroeste 37 Noroeste 0 -- -- 51
2019-06-05 21:00:00 16.5 28 Noroeste 51 Noroeste 0 -- -- 45
2019-06-05 20:00:00 17.7 36 Noroeste 55 Noroeste 0 -- -- 43
2019-06-05 19:00:00 18.2 39 Noroeste 56 Noroeste 0 -- -- 42
2019-06-05 18:00:00 18.4 36 Noroeste 59 Noroeste 0 -- -- 44
2019-06-05 17:00:00 18.3 36 Noroeste 60 Noroeste 0 -- -- 44
2019-06-05 16:00:00 18.5 45 Noroeste 63 Noroeste 0 -- -- 43
2019-06-05 15:00:00 17.5 43 Noroeste 63 Noroeste 0 -- -- 47
2019-06-05 14:00:00 16.5 33 Noroeste 48 Noroeste 0 -- -- 56
2019-06-05 13:00:00 17.2 32 Noroeste 42 Noroeste 0 -- -- 57
2019-06-05 12:00:00 14.6 22 Noroeste 35 Noroeste 0 -- -- 70
2019-06-05 11:00:00 14.6 24 Noroeste 39 Oeste 0 -- -- 72
2019-06-05 10:00:00 14.7 26 Noroeste 36 Noroeste 0 -- -- 72
2019-06-05 09:00:00 14.9 8 Noroeste 15 Norte 0 -- -- 74
2019-06-05 08:00:00 14.1 13 Norte 23 Noroeste 0 -- -- 76
2019-06-05 07:00:00 13.9 7 Norte 12 Noroeste 0 -- -- 79
2019-06-05 06:00:00 14.6 3 Sudeste 14 Sudeste 0 -- -- 73
2019-06-05 05:00:00 15.3 8 Sudeste 14 Sudeste 0 -- -- 69
2019-06-05 04:00:00 15.5 6 Sur 13 Sudeste 0 -- -- 69
2019-06-05 03:00:00 16.4 7 Sudeste 11 Sudeste 0 -- -- 64
2019-06-05 02:00:00 16.9 7 Sudeste 11 Sudeste 0 -- -- 64
2019-06-05 01:00:00 17.7 8 Sudeste 18 Este 0 -- -- 61
2019-06-05 00:00:00 18 15 Sudeste 28 Sudeste 0 -- -- 64
2019-06-04 23:00:00 19.6 10 Este 35 Sudeste 0 -- -- 55
2019-06-04 22:00:00 20.9 21 Sudeste 32 Sudeste 0 -- -- 57
2019-06-04 21:00:00 23 19 Sudeste 38 Sudeste 0 -- -- 51
2019-06-04 20:00:00 25.7 21 Sudeste 39 Sudeste 0 -- -- 44
2019-06-04 19:00:00 28.2 23 Sudeste 45 Sudeste 0 -- -- 35
2019-06-04 18:00:00 29.2 27 Sudeste 44 Sudeste 0 -- -- 33
2019-06-04 17:00:00 30 26 Sudeste 39 Sudeste 0 -- -- 33
2019-06-04 16:00:00 29.2 20 Este 33 Este 0 -- -- 34
2019-06-04 15:00:00 28 19 Sudeste 32 Este 0 -- -- 36
2019-06-04 14:00:00 26.8 14 Sudeste 27 Este 0 -- -- 41
2019-06-04 13:00:00 25.1 11 Sudeste 23 Este 0 -- -- 41
2019-06-04 12:00:00 23.6 12 Este 22 Este 0 -- -- 43
2019-06-04 11:00:00 21.5 11 Sudeste 22 Sudeste 0 -- -- 47
2019-06-04 10:00:00 19.2 14 Sudeste 27 Sudeste 0 -- -- 50
2019-06-04 09:00:00 17.9 5 Sur 13 Sudeste 0 -- -- 49
2019-06-04 08:00:00 16.1 3 Sudoeste 6 Sudoeste 0 -- -- 56
2019-06-04 07:00:00 15.1 0 Calma 8 Oeste 0 -- -- 56
2019-06-04 06:00:00 15 3 Sur 6 Sur 0 -- -- 57
2019-06-04 05:00:00 15.4 3 Sudoeste 8 Sur 0 -- -- 56
2019-06-04 04:00:00 16.1 6 Sudeste 12 Sudeste 0 -- -- 54
2019-06-04 03:00:00 16.3 5 Sur 14 Sudeste 0 -- -- 55
2019-06-04 02:00:00 17 9 Sudeste 20 Sudeste 0 -- -- 53
2019-06-04 01:00:00 17.3 8 Sudeste 17 Este 0 -- -- 53
2019-06-04 00:00:00 18.3 9 Sudeste 17 Sudeste 0 -- -- 49
2019-06-03 23:00:00 19.6 10 Sudeste 24 Sudeste -- -- -- 47
2019-06-03 22:00:00 21.8 15 Sudeste 31 Sudeste 0 -- -- 46
2019-06-03 21:00:00 24.5 11 Este 30 Sudeste 0 -- -- 45
2019-06-03 20:00:00 27.4 19 Sudeste 32 Este 0 -- -- 39
2019-06-03 19:00:00 28.9 20 Este 33 Sudeste 0 -- -- 34
2019-06-03 18:00:00 29.7 19 Este 33 Este 0 -- -- 30
2019-06-03 17:00:00 29.6 18 Sudeste 31 Este 0 -- -- 29
2019-06-03 16:00:00 28.5 14 Sudeste 23 Este 0 -- -- 29
2019-06-03 15:00:00 28.2 14 Sudeste 26 Sudeste 0 -- -- 31
2019-06-03 14:00:00 27 13 Sudeste 23 Sur 0 -- -- 31
2019-06-03 13:00:00 25.3 12 Sudeste 19 Este 0 -- -- 34
2019-06-03 12:00:00 24 9 Sudeste 15 Sur 0 -- -- 36
2019-06-03 11:00:00 21.9 8 Este 14 Este 0 -- -- 39
2019-06-03 10:00:00 20.1 6 Sudeste 11 Este 0 -- -- 40
2019-06-03 09:00:00 18.6 5 Sudeste 10 Sur 0 -- -- 42
2019-06-03 08:00:00 16.9 4 Este 7 Este 0 -- -- 46
2019-06-03 07:00:00 14.7 5 Nordeste 11 Norte 0 -- -- 60
2019-06-03 06:00:00 15.6 6 Nordeste 14 Sur 0 -- -- 57
2019-06-03 05:00:00 16.8 8 Sur 17 Sudeste 0 -- -- 51
2019-06-03 04:00:00 17.6 10 Sur 18 Sur 0 -- -- 49
2019-06-03 03:00:00 17.9 5 Sudoeste 10 Sur 0 -- -- 49
2019-06-03 02:00:00 18.2 6 Sur 17 Noroeste 0 -- -- 47
2019-06-03 01:00:00 18.2 7 Norte 20 Este 0 -- -- 50
2019-06-03 00:00:00 19.4 11 Este 17 Este 0 -- -- 44
2019-06-02 23:00:00 20.8 11 Sudeste 21 Sudeste 0 -- -- 42
2019-06-02 22:00:00 23.9 13 Sudeste 22 Sudeste 0 -- -- 38
2019-06-02 21:00:00 27.1 19 Sur 30 Sudeste 0 -- -- 32
2019-06-02 20:00:00 29.8 17 Sudeste 29 Sudeste 0 -- -- 29
2019-06-02 19:00:00 30.5 18 Sudeste 30 Sudeste 0 -- -- 28
2019-06-02 18:00:00 31.4 14 Sudeste 28 Sudeste 0 -- -- 26
2019-06-02 17:00:00 30.9 14 Sudeste 26 Este 0 -- -- 27
2019-06-02 16:00:00 30.3 13 Este 25 Sur 0 -- -- 28
2019-06-02 15:00:00 29.2 11 Sudeste 25 Sudeste 0 -- -- 30
2019-06-02 14:00:00 27.5 12 Sudeste 23 Sudeste 0 -- -- 31
2019-06-02 13:00:00 26 12 Sudeste 22 Sudeste 0 -- -- 35
2019-06-02 12:00:00 24.1 10 Sudeste 19 Sudeste 0 -- -- 37
2019-06-02 11:00:00 22.4 12 Sudeste 21 Este 0 -- -- 40
2019-06-02 10:00:00 21.1 9 Sudeste 16 Sudeste 0 -- -- 42
2019-06-02 09:00:00 19.3 5 Sur 8 Sudeste 0 -- -- 47
2019-06-02 08:00:00 17.2 3 Sudoeste 4 Sur 0 -- -- 54
2019-06-02 07:00:00 14.9 3 Oeste 8 Sudoeste 0 -- -- 59
2019-06-02 06:00:00 14.8 5 Sudoeste 8 Sudoeste 0 -- -- 57
2019-06-02 05:00:00 15.3 4 Sudoeste 7 Sudoeste 0 -- -- 56
2019-06-02 04:00:00 16.2 2 Sudoeste 7 Sur 0 -- -- 55
2019-06-02 03:00:00 16.6 2 Sudeste 7 Sudeste 0 -- -- 55
2019-06-02 02:00:00 17.8 5 Sudeste 9 Sudeste 0 -- -- 51
2019-06-02 01:00:00 18.6 8 Este 18 Sudeste 0 -- -- 49
2019-06-02 00:00:00 20.6 9 Este 16 Sudeste 0 -- -- 45
2019-06-01 23:00:00 22.1 10 Sudeste 17 Sudeste 0 -- -- 40
2019-06-01 22:00:00 24 12 Sur 28 Sur 0 -- -- 37
2019-06-01 21:00:00 27 15 Sur 25 Sudeste 0 -- -- 34
2019-06-01 20:00:00 29.2 11 Este 24 Sudeste 0 -- -- 29
2019-06-01 19:00:00 30.1 11 Sudeste 23 Sudeste 0 -- -- 25
2019-06-01 18:00:00 30 12 Este 21 Sudeste 0 -- -- 23
2019-06-01 17:00:00 29.8 14 Este 24 Este 0 -- -- 26
2019-06-01 16:00:00 29.1 11 Este 22 Sudeste 0 -- -- 28
2019-06-01 15:00:00 28.1 12 Sudeste 27 Sudeste 0 -- -- 31
2019-06-01 14:00:00 26.9 10 Sudeste 21 Sudeste 0 -- -- 36
2019-06-01 13:00:00 25.3 10 Sudeste 20 Sudeste 0 -- -- 39
2019-06-01 12:00:00 23.8 10 Sudeste 20 Sudeste 0 -- -- 41
2019-06-01 11:00:00 22 11 Sudeste 18 Sudeste 0 -- -- 42
2019-06-01 10:00:00 20.1 7 Sudeste 14 Sudeste 0 -- -- 54
2019-06-01 09:00:00 18.5 8 Sur 17 Sur 0 -- -- 58
2019-06-01 08:00:00 16.6 3 Sudoeste 6 Oeste 0 -- -- 63
2019-06-01 07:00:00 14.6 5 Sudoeste 6 Sudoeste 0 -- -- 68
2019-06-01 06:00:00 14.7 2 Oeste 8 Noroeste 0 -- -- 69
2019-06-01 05:00:00 14.4 7 Noroeste 7 Noroeste 0 -- -- 71
2019-06-01 04:00:00 15.2 3 Nordeste 7 Este 0 -- -- 68
2019-06-01 03:00:00 15.9 0 Calma 11 Sudeste 0 -- -- 66
2019-06-01 02:00:00 16.7 4 Sudeste 10 Este 0 -- -- 63
2019-06-01 01:00:00 17.5 8 Este 15 Sudeste 0 -- -- 62
2019-06-01 00:00:00 19.6 9 Sudeste 13 Sudeste 0 -- -- 53
2019-05-31 23:00:00 20.8 8 Sur 17 Sur 0 -- -- 51
2019-05-31 22:00:00 22.8 12 Sur 20 Sur 0 -- -- 46
2019-05-31 21:00:00 25.4 12 Sudeste 22 Sudeste 0 -- -- 42
2019-05-31 20:00:00 27.6 10 Este 19 Este 0 -- -- 34
2019-05-31 19:00:00 27.6 9 Sudeste 17 Este 0 -- -- 34
2019-05-31 18:00:00 28.2 9 Sudeste 17 Este 0 -- -- 30
2019-05-31 17:00:00 27.6 7 Sudeste 17 Sudeste 0 -- -- 30
2019-05-31 16:00:00 26.7 5 Sudeste 17 Sudeste 0 -- -- 34
2019-05-31 15:00:00 25.7 7 Sudeste 19 Sur 0 -- -- 37
2019-05-31 14:00:00 24.3 8 Este 19 Este 0 -- -- 42
2019-05-31 13:00:00 22.5 8 Sur 20 Este 0 -- -- 44
2019-05-31 12:00:00 21.3 11 Sudeste 21 Este 0 -- -- 45
2019-05-31 11:00:00 19.9 10 Sudeste 17 Sudeste 0 -- -- 47
2019-05-31 10:00:00 17.8 6 Sudeste 15 Este 0 -- -- 54
2019-05-31 09:00:00 16.3 8 Sur 12 Sudeste 0 -- -- 60
2019-05-31 08:00:00 14.6 0 Calma 4 Noroeste 0 -- -- 67
2019-05-31 07:00:00 12.5 0 Calma 5 Oeste 0 -- -- 70
2019-05-31 06:00:00 12.4 0 Calma 4 Sur 0 -- -- 73
2019-05-31 05:00:00 12.5 0 Calma 9 Sudeste 0 -- -- 75
2019-05-31 04:00:00 14 6 Sudeste 15 Sudeste 0 -- -- 69
2019-05-31 03:00:00 14.4 10 Sudeste 23 Sudeste 0 -- -- 69
2019-05-31 02:00:00 15.1 13 Sudeste 24 Sudeste 0 -- -- 69
2019-05-31 01:00:00 16.5 13 Sudeste 22 Sudeste 0 -- -- 64
2019-05-31 00:00:00 18.8 8 Este 16 Sudeste 0 -- -- 57
2019-05-30 23:00:00 21.9 6 Sur 9 Sudoeste 0 -- -- 39
2019-05-30 22:00:00 23 6 Sudoeste 15 Sudoeste 0 -- -- 37
2019-05-30 21:00:00 26.3 8 Oeste 18 Sudoeste 0 -- -- 31
2019-05-30 20:00:00 28.2 6 Sudoeste 10 Norte 0 -- -- 27
2019-05-30 19:00:00 27.6 4 Norte 16 Nordeste 0 -- -- 28
2019-05-30 18:00:00 27.2 6 Nordeste 14 Norte 0 -- -- 30
2019-05-30 17:00:00 26.6 6 Norte 15 Este 0 -- -- 33
2019-05-30 16:00:00 25.5 11 Nordeste 20 Norte 0 -- -- 35
2019-05-30 15:00:00 24.2 8 Norte 18 Norte 0 -- -- 39
2019-05-30 14:00:00 22.8 10 Norte 17 Nordeste 0 -- -- 43
2019-05-30 13:00:00 21.9 6 Norte 13 Nordeste 0 -- -- 43
2019-05-30 12:00:00 19.9 6 Nordeste 15 Norte 0 -- -- 46
2019-05-30 11:00:00 17.6 4 Norte 14 Norte 0 -- -- 53
2019-05-30 10:00:00 15.9 5 Nordeste 12 Norte 0 -- -- 59
2019-05-30 09:00:00 13.5 5 Norte 10 Norte 0 -- -- 62
2019-05-30 08:00:00 11.3 2 Sudoeste 9 Noroeste 0 -- -- 71
2019-05-30 07:00:00 8.7 8 Noroeste 9 Norte 0 -- -- 78
2019-05-30 06:00:00 9.4 3 Sudoeste 10 Norte 0 -- -- 73
2019-05-30 05:00:00 9.7 0 Calma 13 Norte 0 -- -- 72
2019-05-30 04:00:00 10.4 9 Noroeste 22 Noroeste 0 -- -- 71
2019-05-30 03:00:00 10.5 17 Norte 20 Noroeste 0 -- -- 71
2019-05-30 02:00:00 12 12 Noroeste 29 Noroeste 0 -- -- 65
2019-05-30 01:00:00 12.9 23 Noroeste 29 Noroeste 0 -- -- 62
2019-05-30 00:00:00 13.7 21 Noroeste 28 Noroeste 0 -- -- 59
2019-05-29 23:00:00 14.8 21 Noroeste 35 Noroeste 0 -- -- 54
2019-05-29 22:00:00 16.2 23 Noroeste 43 Noroeste 0 -- -- 50
2019-05-29 21:00:00 18.5 29 Noroeste 50 Noroeste 0 -- -- 44
2019-05-29 20:00:00 20.2 32 Noroeste 55 Noroeste 0 -- -- 39
2019-05-29 19:00:00 20.9 37 Noroeste 50 Noroeste 0 -- -- 37
2019-05-29 18:00:00 22.1 36 Noroeste 52 Noroeste 0 -- -- 33
2019-05-29 17:00:00 22.1 35 Noroeste 51 Noroeste 0 -- -- 34
2019-05-29 16:00:00 22.4 30 Noroeste 49 Noroeste 0 -- -- 30
2019-05-29 15:00:00 21.5 28 Noroeste 48 Noroeste 0 -- -- 33
2019-05-29 14:00:00 20.7 24 Noroeste 42 Noroeste 0 -- -- 34
2019-05-29 13:00:00 19.3 31 Noroeste 45 Noroeste 0 -- -- 39
2019-05-29 12:00:00 18.7 28 Norte 44 Noroeste 0 -- -- 36
2019-05-29 11:00:00 17.2 28 Noroeste 43 Noroeste 0 -- -- 45
2019-05-29 10:00:00 15.3 26 Noroeste 43 Noroeste 0 -- -- 51
2019-05-29 09:00:00 13.3 28 Noroeste 42 Noroeste 0 -- -- 56
2019-05-29 08:00:00 11.2 28 Noroeste 39 Noroeste 0 -- -- 64
2019-05-29 07:00:00 9.8 23 Noroeste 40 Noroeste 0 -- -- 69
2019-05-29 06:00:00 9.9 28 Noroeste 42 Noroeste 0 -- -- 70
2019-05-29 05:00:00 10.2 27 Noroeste 45 Noroeste 0 -- -- 68
2019-05-29 04:00:00 10.7 34 Noroeste 48 Noroeste 0 -- -- 66
2019-05-29 03:00:00 10.9 32 Noroeste 55 Noroeste 0 -- -- 64
2019-05-29 02:00:00 11.1 40 Noroeste 58 Noroeste 0 -- -- 63
2019-05-29 01:00:00 11.2 34 Noroeste 69 Noroeste 0 -- -- 64
2019-05-29 00:00:00 11.9 46 Noroeste 69 Noroeste 0 -- -- 61
2019-05-28 23:00:00 12.4 35 Noroeste 76 Norte 0 -- -- 58
2019-05-28 22:00:00 13.3 45 Noroeste 75 Noroeste 0 -- -- 52
2019-05-28 21:00:00 14.7 45 Noroeste 77 Noroeste 0 -- -- 49
2019-05-28 20:00:00 16.3 33 Noroeste 60 Noroeste 0 -- -- 44
2019-05-28 19:00:00 17.6 43 Noroeste 78 Noroeste 0 -- -- 38
2019-05-28 18:00:00 18.4 53 Noroeste 95 Noroeste 0 -- -- 44
2019-05-28 17:00:00 19.4 55 Noroeste 80 Noroeste 0 -- -- 39
2019-05-28 16:00:00 19.5 50 Noroeste 81 Noroeste 0 -- -- 37
2019-05-28 15:00:00 19.3 49 Noroeste 69 Noroeste 0 -- -- 41
2019-05-28 14:00:00 19.2 49 Noroeste 71 Noroeste 0 -- -- 42
2019-05-28 13:00:00 19.2 41 Noroeste 59 Noroeste 0 -- -- 42
2019-05-28 12:00:00 17.9 39 Noroeste 57 Noroeste 0 -- -- 44
2019-05-28 11:00:00 16.9 33 Noroeste 58 Noroeste 0 -- -- 44
2019-05-28 10:00:00 14.8 39 Noroeste 57 Noroeste 0 -- -- 53
2019-05-28 09:00:00 13.5 34 Noroeste 54 Noroeste 0 -- -- 57
2019-05-28 08:00:00 12 37 Noroeste 56 Noroeste 0 -- -- 61
2019-05-28 07:00:00 11 37 Noroeste 57 Noroeste 0 -- -- 65
2019-05-28 06:00:00 11.1 39 Noroeste 59 Noroeste 0 -- -- 63
2019-05-28 05:00:00 11.3 40 Noroeste 57 Noroeste 0 -- -- 61
2019-05-28 04:00:00 11.7 39 Noroeste 61 Noroeste 0 -- -- 60
2019-05-28 03:00:00 12.2 37 Noroeste 53 Noroeste 0 -- -- 64
2019-05-28 02:00:00 12.9 33 Noroeste 56 Noroeste 0 -- -- 62
2019-05-28 01:00:00 13.3 31 Noroeste 53 Noroeste 0 -- -- 57
2019-05-28 00:00:00 14.1 34 Noroeste 53 Noroeste 0 -- -- 59
2019-05-27 23:00:00 15.3 38 Noroeste 63 Noroeste 0 -- -- 62
2019-05-27 22:00:00 16.9 36 Noroeste 59 Noroeste 0 -- -- 61
2019-05-27 21:00:00 18.9 35 Noroeste 52 Noroeste 0 -- -- 54
2019-05-27 20:00:00 21 37 Noroeste 62 Noroeste 0 -- -- 47
2019-05-27 19:00:00 22.6 41 Noroeste 65 Noroeste 0 -- -- 44
2019-05-27 18:00:00 23.4 42 Noroeste 57 Noroeste 0 -- -- 43
2019-05-27 17:00:00 24.2 35 Noroeste 54 Noroeste 0 -- -- 43
2019-05-27 16:00:00 24 25 Noroeste 41 Noroeste 0 -- -- 44
2019-05-27 15:00:00 23.3 25 Noroeste 37 Noroeste 0 -- -- 44
2019-05-27 14:00:00 21.2 22 Noroeste 40 Noroeste 0 -- -- 47
2019-05-27 13:00:00 20.8 20 Noroeste 37 Noroeste 0 -- -- 48
2019-05-27 12:00:00 19 20 Noroeste 36 Noroeste 0 -- -- 50
2019-05-27 11:00:00 17.5 22 Noroeste 35 Noroeste 0 -- -- 54
2019-05-27 10:00:00 16.3 23 Noroeste 32 Noroeste 0 -- -- 59
2019-05-27 09:00:00 14.2 21 Noroeste 31 Noroeste 0 -- -- 67
2019-05-27 08:00:00 12.7 21 Noroeste 31 Noroeste 0 -- -- 72
2019-05-27 07:00:00 10.7 15 Noroeste 28 Noroeste 0 -- -- 80
2019-05-27 06:00:00 10.4 16 Noroeste 27 Noroeste 0 -- -- 81
2019-05-27 05:00:00 10.9 21 Noroeste 28 Noroeste 0 -- -- 79
2019-05-27 04:00:00 11.5 20 Noroeste 36 Noroeste 0 -- -- 76
2019-05-27 03:00:00 12.2 25 Noroeste 36 Noroeste 0 -- -- 73
2019-05-27 02:00:00 12.6 27 Noroeste 38 Noroeste 0 -- -- 71
2019-05-27 01:00:00 13 27 Noroeste 39 Noroeste 0 -- -- 70
2019-05-27 00:00:00 13.6 29 Noroeste 43 Noroeste 0 -- -- 68